createdAt,value
2018-12-19T00:02:23.531Z,7.60
2018-12-19T00:07:24.218Z,7.50
2018-12-19T00:12:23.074Z,7.50
2018-12-19T00:17:21.854Z,7.50
2018-12-19T00:22:20.575Z,7.40
2018-12-19T00:27:19.390Z,7.40
2018-12-19T00:32:20.029Z,7.40
2018-12-19T00:37:20.715Z,7.40
2018-12-19T00:42:19.434Z,7.40
2018-12-19T00:47:18.169Z,7.40
2018-12-19T00:52:16.942Z,7.30
2018-12-19T00:57:19.015Z,7.30
2018-12-19T01:02:17.806Z,7.20
2018-12-19T01:07:16.628Z,7.20
2018-12-19T01:12:15.380Z,7.10
2018-12-19T01:17:14.142Z,7.00
2018-12-19T01:22:12.867Z,7.00
2018-12-19T01:27:12.208Z,7.00
2018-12-19T01:32:10.972Z,7.10
2018-12-19T01:37:09.701Z,7.10
2018-12-19T01:42:08.548Z,7.10
2018-12-19T01:47:07.273Z,7.10
2018-12-19T01:52:06.027Z,7.10
2018-12-19T01:57:04.762Z,7.10
2018-12-19T02:02:03.634Z,7.10
2018-12-19T02:07:02.382Z,7.00
2018-12-19T02:12:01.177Z,7.00
2018-12-19T02:16:59.947Z,6.90
2018-12-19T02:21:59.706Z,6.80
2018-12-19T02:26:58.525Z,6.80
2018-12-19T02:31:57.296Z,6.80
2018-12-19T02:36:56.150Z,6.70
2018-12-19T02:41:55.926Z,6.70
2018-12-19T02:46:54.711Z,6.70
2018-12-19T02:51:54.553Z,6.70
2018-12-19T02:56:53.263Z,6.80
2018-12-19T03:01:52.035Z,6.80
2018-12-19T03:06:50.766Z,6.70
2018-12-19T03:11:49.573Z,6.70
2018-12-19T03:16:48.308Z,6.70
2018-12-19T03:21:47.173Z,6.80
2018-12-19T04:16:03.808Z,6.80
2018-12-19T04:21:02.589Z,6.60
2018-12-19T04:26:01.322Z,6.60
2018-12-19T04:31:00.022Z,6.60
2018-12-19T04:35:58.861Z,6.60
2018-12-19T04:40:57.609Z,6.70
2018-12-19T04:45:56.356Z,6.80
2018-12-19T04:50:55.034Z,6.80
2018-12-19T04:55:53.873Z,6.90
2018-12-19T05:00:52.632Z,6.90
2018-12-19T05:05:51.430Z,6.80
2018-12-19T05:10:50.210Z,6.80
2018-12-19T05:15:48.885Z,6.90
2018-12-19T05:20:47.606Z,6.90
2018-12-19T05:25:46.377Z,7.00
2018-12-19T05:30:45.093Z,7.00
2018-12-19T05:35:43.815Z,7.00
2018-12-19T05:40:42.599Z,7.10
2018-12-19T05:45:41.332Z,7.10
2018-12-19T05:50:40.081Z,7.10
2018-12-19T05:55:38.801Z,7.10
2018-12-19T06:00:37.501Z,7.10
2018-12-19T06:05:38.145Z,7.20
2018-12-19T06:10:36.853Z,7.20
2018-12-19T06:15:42.248Z,7.10
2018-12-19T06:20:40.957Z,7.20
2018-12-19T06:25:39.730Z,7.10
2018-12-19T06:30:38.533Z,7.20
2018-12-19T06:35:37.459Z,7.20
2018-12-19T06:40:36.157Z,7.20
2018-12-19T06:45:34.875Z,7.20
2018-12-19T06:50:33.665Z,7.20
2018-12-19T06:55:32.463Z,7.30
2018-12-19T07:00:31.323Z,7.20
2018-12-19T07:05:30.102Z,7.30
2018-12-19T07:10:28.905Z,7.20
2018-12-19T07:15:27.699Z,7.20
2018-12-19T07:20:27.421Z,7.30
2018-12-19T07:25:26.145Z,7.30
2018-12-19T07:30:24.895Z,7.20
2018-12-19T07:35:23.694Z,7.20
2018-12-19T07:40:22.390Z,7.20
2018-12-19T07:45:21.112Z,7.20
2018-12-19T07:50:19.823Z,7.30
2018-12-19T07:55:18.613Z,7.30
2018-12-19T08:00:17.441Z,7.30
2018-12-19T08:05:16.285Z,7.30
2018-12-19T08:10:15.088Z,7.30
2018-12-19T08:15:13.897Z,7.30
2018-12-19T08:20:12.689Z,7.30
2018-12-19T08:25:11.484Z,7.30
2018-12-19T08:30:10.557Z,7.30
2018-12-19T08:35:09.394Z,7.30
2018-12-19T08:40:08.220Z,7.30
2018-12-19T08:45:07.054Z,7.30
2018-12-19T08:50:07.942Z,7.40
2018-12-19T08:55:07.366Z,7.40
2018-12-19T09:00:08.181Z,7.40
2018-12-19T09:05:07.101Z,7.40
2018-12-19T09:10:06.297Z,7.40
2018-12-19T09:15:05.737Z,7.50
2018-12-19T09:20:05.118Z,7.50
2018-12-19T09:25:03.975Z,7.60
2018-12-19T09:30:02.908Z,7.60
2018-12-19T09:35:01.753Z,7.60
2018-12-19T09:40:00.661Z,7.60
2018-12-19T09:44:59.442Z,7.70
2018-12-19T09:49:58.296Z,7.70
2018-12-19T09:54:57.025Z,7.80
2018-12-19T09:59:55.765Z,7.80
2018-12-19T10:04:54.488Z,7.80
2018-12-19T10:09:53.306Z,7.90
2018-12-19T10:14:52.073Z,7.90
2018-12-19T10:19:50.812Z,7.90
2018-12-19T10:24:54.873Z,8.00
2018-12-19T10:29:53.618Z,8.00
2018-12-19T10:34:52.361Z,8.00
2018-12-19T10:39:51.065Z,8.00
2018-12-19T10:44:49.777Z,8.10
2018-12-19T10:49:48.635Z,8.10
2018-12-19T10:54:47.445Z,8.10
2018-12-19T10:59:46.229Z,8.10
2018-12-19T11:04:45.058Z,8.10
2018-12-19T11:09:43.842Z,8.20
2018-12-19T11:14:42.546Z,8.30
2018-12-19T11:19:41.268Z,8.30
2018-12-19T11:24:40.005Z,8.30
2018-12-19T11:29:38.739Z,8.30
2018-12-19T11:34:37.517Z,8.30
2018-12-19T11:39:36.345Z,8.40
2018-12-19T11:44:35.076Z,8.40
2018-12-19T11:49:33.789Z,8.40
2018-12-19T11:54:32.558Z,8.40
2018-12-19T11:59:31.329Z,8.50
2018-12-19T12:04:30.130Z,8.50
2018-12-19T12:09:30.868Z,8.50
2018-12-19T12:14:29.594Z,8.50
2018-12-19T12:19:28.421Z,8.50
2018-12-19T12:24:27.251Z,8.50
2018-12-19T12:29:25.989Z,8.50
2018-12-19T12:34:25.746Z,8.60
2018-12-19T12:39:24.525Z,8.60
2018-12-19T12:44:23.355Z,8.60
2018-12-19T12:49:22.169Z,8.60
2018-12-19T12:54:21.017Z,8.70
2018-12-19T12:59:19.785Z,8.70
2018-12-19T13:04:18.573Z,8.70
2018-12-19T13:09:17.381Z,8.80
2018-12-19T13:14:16.264Z,8.80
2018-12-19T13:19:14.982Z,8.80
2018-12-19T13:24:13.756Z,8.80
2018-12-19T13:29:12.536Z,8.90
2018-12-19T13:34:12.026Z,8.90
2018-12-19T13:39:10.725Z,8.90
2018-12-19T13:44:09.497Z,9.00
2018-12-19T13:49:08.269Z,9.00
2018-12-19T13:54:06.984Z,9.10
2018-12-19T13:59:06.074Z,9.10
2018-12-19T14:04:04.865Z,9.20
2018-12-19T14:09:06.325Z,9.20
2018-12-19T14:14:07.073Z,9.20
2018-12-19T14:19:05.826Z,9.20
2018-12-19T14:24:04.617Z,9.20
2018-12-19T14:29:03.429Z,9.30
2018-12-19T14:34:02.137Z,9.30
2018-12-19T14:39:00.858Z,9.20
2018-12-19T14:44:01.511Z,9.30
2018-12-19T14:49:00.209Z,9.30
2018-12-19T14:53:59.049Z,9.30
2018-12-19T14:58:57.801Z,9.30
2018-12-19T15:03:56.562Z,9.30
2018-12-19T15:08:55.398Z,9.30
2018-12-19T15:13:54.138Z,9.30
2018-12-19T15:18:52.946Z,9.30
2018-12-19T15:23:51.727Z,9.30
2018-12-19T15:28:50.513Z,9.30
2018-12-19T15:33:49.322Z,9.30
2018-12-19T15:38:48.017Z,9.30
2018-12-19T15:43:46.781Z,9.30
2018-12-19T15:48:46.458Z,9.30
2018-12-19T15:53:45.290Z,9.30
2018-12-19T15:58:43.989Z,9.30
2018-12-19T16:03:42.752Z,9.40
2018-12-19T16:08:41.521Z,9.40
2018-12-19T16:13:40.529Z,9.40
2018-12-19T16:18:39.294Z,9.40
2018-12-19T16:23:37.998Z,9.40
2018-12-19T16:28:36.801Z,9.40
2018-12-19T16:33:35.593Z,9.50
2018-12-19T16:38:34.329Z,9.50
2018-12-19T16:43:33.057Z,9.50
2018-12-19T16:48:31.805Z,9.50
2018-12-19T16:53:30.650Z,9.60
2018-12-19T16:58:29.333Z,9.60
2018-12-19T17:03:28.040Z,9.60
2018-12-19T17:08:26.930Z,9.60
2018-12-19T17:13:25.625Z,9.60
2018-12-19T17:18:24.408Z,9.60
2018-12-19T17:23:24.161Z,9.60
2018-12-19T17:28:22.849Z,9.60
2018-12-19T17:33:21.729Z,9.60
2018-12-19T17:38:20.577Z,9.50
2018-12-19T17:43:19.393Z,9.50
2018-12-19T17:48:18.449Z,9.50
2018-12-19T17:53:17.208Z,9.50
2018-12-19T17:58:16.051Z,9.50
2018-12-19T18:03:14.917Z,9.50
2018-12-19T18:08:13.694Z,9.50
2018-12-19T18:13:12.513Z,9.50
2018-12-19T18:18:12.289Z,9.50
2018-12-19T18:23:15.785Z,9.50
2018-12-19T18:28:14.726Z,9.50
2018-12-19T18:33:13.446Z,9.50
2018-12-19T18:38:12.276Z,9.60
2018-12-19T18:43:13.129Z,9.60
2018-12-19T18:48:11.922Z,9.60
2018-12-19T18:53:10.621Z,9.60
2018-12-19T18:58:09.392Z,9.60
2018-12-19T19:03:08.261Z,9.60
2018-12-19T19:08:07.184Z,9.60
2018-12-19T19:13:06.002Z,9.60
2018-12-19T19:18:04.825Z,9.60
2018-12-19T19:23:04.530Z,9.60
2018-12-19T19:28:03.358Z,9.60
2018-12-19T19:33:02.126Z,9.60
2018-12-19T19:38:01.095Z,9.60
2018-12-19T19:42:59.831Z,9.60
2018-12-19T19:47:58.649Z,9.60
2018-12-19T19:52:58.461Z,9.60
2018-12-19T19:57:57.226Z,9.60
2018-12-19T20:02:56.151Z,9.60
2018-12-19T20:07:54.914Z,9.60
2018-12-19T20:12:53.723Z,9.60
2018-12-19T20:17:53.486Z,9.60
2018-12-19T20:22:52.258Z,9.60
2018-12-19T20:27:50.985Z,9.60
2018-12-19T20:32:49.802Z,9.60
2018-12-19T20:37:49.554Z,9.60
2018-12-19T20:42:48.355Z,9.50
2018-12-19T20:47:47.113Z,9.50
2018-12-19T20:52:45.830Z,9.50
2018-12-19T20:57:44.642Z,9.50
2018-12-19T21:02:43.495Z,9.50
2018-12-19T21:07:42.318Z,9.60
2018-12-19T21:12:41.167Z,9.60
2018-12-19T21:17:45.610Z,9.70
2018-12-19T21:22:44.405Z,9.70
2018-12-19T21:27:43.245Z,9.70
2018-12-19T21:32:42.025Z,9.70
2018-12-19T21:37:40.805Z,9.80
2018-12-19T21:42:40.377Z,9.70
2018-12-19T21:47:39.141Z,9.80
2018-12-19T21:52:37.947Z,9.80
2018-12-19T21:57:36.798Z,9.80
2018-12-19T22:02:35.691Z,9.80
2018-12-19T22:07:35.796Z,9.80
2018-12-19T22:12:34.692Z,9.80
2018-12-19T22:17:38.849Z,9.80
2018-12-19T22:22:37.598Z,9.80
2018-12-19T22:27:36.359Z,9.80
2018-12-19T22:32:35.095Z,9.80
2018-12-19T22:37:33.853Z,9.80
2018-12-19T22:42:32.553Z,9.80
2018-12-19T22:47:31.332Z,9.80
2018-12-19T22:52:30.190Z,9.80
2018-12-19T22:57:29.107Z,9.80
2018-12-19T23:02:33.335Z,9.80
2018-12-19T23:07:32.112Z,9.80
2018-12-19T23:12:31.037Z,9.80
2018-12-19T23:17:36.013Z,9.80
2018-12-19T23:22:40.521Z,9.80
2018-12-19T23:27:44.967Z,9.80
2018-12-19T23:32:45.733Z,9.80
2018-12-19T23:37:44.538Z,9.80
2018-12-19T23:42:43.427Z,9.80
2018-12-19T23:47:42.238Z,9.80
2018-12-19T23:52:41.008Z,9.80
2018-12-19T23:57:39.827Z,9.80
